Terminal Aerodrome Forecast
Issued by NWS

Home | Current Version | Previous Version | Text Only | Print | Product List | Glossary On
Versions: 1 2 3 4 5 6 7 8 9 10 11 12
000
FTUS45 KREV 291200 AAA
TAFMMH
TAF AMD
KMMH 291200Z 2912/3012 29010KT P6SM SKC
     FM292000 28012G24KT P6SM SKC
     FM300500 29011KT P6SM SKC
     FM301100 31010KT 6SM -SN OVC025
      AMD NOT SKED 2912/2914=

USA.gov is the U.S. government's official web portal to all federal, state and local government web resources and services.